Almaty, Kazakhstan
Current Conditions -  °F | °C
As of 12:00 AM on Tuesday 23 Dec 2014 (Local Time) from UAAA Reporting Station
Moderate Fog Moderate Fog  
Wind Chill: 11°   Ceiling: 20000
Heat Index: 18°   Visibility: 0.18mi
Dew Point: 14°   Wind: 4mph
Humidity: 86%   Direction: 170°S
Pressure: 30.06"   Gusts: NA
Location:  43.32°N, 76.92°E
Report Text: UAAA 221800Z 17002MPS 0300 R23R/1200N R23L/0800N FZFG FU BKN200M08/M10 Q1018 R88/91//60 NOSIG
Loading
Personal Weather Stations






























Interactive Weather Map New forecast layout! Learn more

10-Day Weather Forecast

Advertisements
Track Severe Weather on mobile